Time;durP1;ratioP1;P1;durP2;ratioP2;P2;SDS_P1;SDS_P2;PMS_P1;PMS_P2;Temp;Humidity;BMP_temperature;BMP_pressure;BME280_temperature;BME280_humidity;BME280_pressure;Samples;Min_cycle;Max_cycle;Signal;HPM_P1;HPM_P2
2024/02/09 00:00:10;;;;;;;13.20;11.60;;;;;;;-0.87;100.00;99389.42;87459;272;138427;-72
2024/02/09 00:02:16;;;;;;;13.00;11.60;;;;;;;-0.81;100.00;99392.19;87290;269;22562;-71
2024/02/09 00:04:19;;;;;;;14.70;9.70;;;;;;;-0.74;100.00;99397.52;87105;266;138755;-73
2024/02/09 00:06:21;;;;;;;13.80;11.60;;;;;;;-0.68;100.00;99394.98;87547;270;22816;-72
2024/02/09 00:08:23;;;;;;;15.40;11.00;;;;;;;-0.67;100.00;99392.27;86962;272;136575;-72
2024/02/09 00:10:25;;;;;;;15.60;11.60;;;;;;;-0.67;100.00;99390.52;87044;279;22541;-72
2024/02/09 00:12:27;;;;;;;14.20;12.70;;;;;;;-0.67;100.00;99387.45;87178;269;137813;-71
2024/02/09 00:14:30;;;;;;;14.70;12.70;;;;;;;-0.69;100.00;99385.64;87262;267;22633;-71
2024/02/09 00:16:32;;;;;;;13.80;11.50;;;;;;;-0.69;100.00;99386.55;87196;266;137778;-74
2024/02/09 00:18:34;;;;;;;14.40;11.50;;;;;;;-0.64;100.00;99384.39;87460;269;24268;-70
2024/02/09 00:20:37;;;;;;;12.40;10.00;;;;;;;-0.54;100.00;99384.86;87139;271;137185;-71
2024/02/09 00:22:39;;;;;;;10.10;9.00;;;;;;;-0.48;100.00;99382.37;87519;267;22962;-73
2024/02/09 00:24:42;;;;;;;12.40;9.60;;;;;;;-0.45;100.00;99377.23;87303;271;137508;-71
2024/02/09 00:26:44;;;;;;;12.70;10.50;;;;;;;-0.48;100.00;99378.94;87398;277;24016;-70
2024/02/09 00:28:46;;;;;;;9.60;8.60;;;;;;;-0.52;100.00;99381.88;86998;278;136565;-71
2024/02/09 00:30:48;;;;;;;10.50;9.40;;;;;;;-0.55;100.00;99376.05;87310;270;25169;-70
2024/02/09 00:32:51;;;;;;;10.10;9.10;;;;;;;-0.59;100.00;99373.23;87180;269;137597;-71
2024/02/09 00:34:54;;;;;;;10.50;9.00;;;;;;;-0.61;100.00;99371.17;87301;269;25089;-71
2024/02/09 00:36:57;;;;;;;10.80;8.50;;;;;;;-0.57;100.00;99368.52;87230;270;136700;-72
2024/02/09 00:38:59;;;;;;;10.10;9.00;;;;;;;-0.48;100.00;99363.92;87220;270;24800;-71
2024/02/09 00:41:04;;;;;;;9.30;8.20;;;;;;;-0.45;100.00;99358.52;87194;269;136948;-71
2024/02/09 00:43:06;;;;;;;9.80;8.50;;;;;;;-0.46;100.00;99359.47;87291;271;25153;-74
2024/02/09 00:45:08;;;;;;;10.00;8.20;;;;;;;-0.46;100.00;99353.55;87169;267;136267;-71
2024/02/09 00:47:11;;;;;;;9.60;8.60;;;;;;;-0.47;100.00;99351.59;87438;278;22555;-71
2024/02/09 00:49:13;;;;;;;9.10;8.10;;;;;;;-0.49;100.00;99348.81;87188;269;137232;-71
2024/02/09 00:51:16;;;;;;;12.00;8.60;;;;;;;-0.51;100.00;99347.55;87274;278;25210;-73
2024/02/09 00:53:18;;;;;;;11.80;8.60;;;;;;;-0.53;100.00;99340.77;87150;273;136436;-71
2024/02/09 00:55:20;;;;;;;10.10;8.10;;;;;;;-0.53;100.00;99340.63;87292;269;25164;-69
2024/02/09 00:57:22;;;;;;;10.30;8.40;;;;;;;-0.49;100.00;99340.92;87149;269;137068;-72
2024/02/09 00:59:24;;;;;;;8.00;7.00;;;;;;;-0.45;100.00;99343.00;87092;272;22566;-71
2024/02/09 01:01:26;;;;;;;10.60;8.60;;;;;;;-0.43;100.00;99338.83;87099;267;137316;-70
2024/02/09 01:03:28;;;;;;;8.90;8.00;;;;;;;-0.41;100.00;99336.40;87413;267;22810;-71
2024/02/09 01:05:32;;;;;;;11.80;7.30;;;;;;;-0.39;100.00;99331.61;87238;271;137757;-70
2024/02/09 01:07:36;;;;;;;7.50;6.10;;;;;;;-0.41;100.00;99326.55;87510;270;24260;-71
2024/02/09 01:09:38;;;;;;;10.90;7.90;;;;;;;-0.48;100.00;99323.10;87226;269;136162;-71
2024/02/09 01:11:41;;;;;;;10.00;7.80;;;;;;;-0.58;100.00;99323.09;87370;274;25076;-71
2024/02/09 02:45:13;;;;;;;7.60;6.80;;;;;;;-1.09;100.00;99251.20;87173;277;135854;-72
2024/02/09 02:47:16;;;;;;;7.90;5.50;;;;;;;-1.08;100.00;99250.73;87328;277;24277;-70
2024/02/09 03:05:52;;;;;;;5.50;4.90;;;;;;;-0.97;100.00;99243.34;87149;272;136764;-69
2024/02/09 03:07:58;;;;;;;5.90;5.20;;;;;;;-0.93;100.00;99240.52;87342;269;23374;-71
2024/02/09 03:10:03;;;;;;;5.60;4.90;;;;;;;-0.88;100.00;99238.50;87384;276;22532;-69
2024/02/09 03:12:05;;;;;;;4.70;4.30;;;;;;;-0.84;100.00;99237.35;87278;276;136528;-69
2024/02/09 03:14:07;;;;;;;6.20;5.60;;;;;;;-0.86;100.00;99231.92;87309;273;25214;-69
2024/02/09 03:16:09;;;;;;;6.70;5.00;;;;;;;-0.91;100.00;99232.25;87261;273;137697;-68
2024/02/09 03:18:11;;;;;;;5.30;4.80;;;;;;;-0.94;100.00;99233.11;87418;274;25227;-72
2024/02/09 03:20:13;;;;;;;5.80;5.30;;;;;;;-0.94;100.00;99234.36;87217;274;137016;-72
2024/02/09 03:22:15;;;;;;;6.40;5.50;;;;;;;-0.89;100.00;99234.00;87338;268;23742;-72
2024/02/09 03:24:17;;;;;;;6.00;5.40;;;;;;;-0.86;100.00;99228.33;87262;268;141010;-70
2024/02/09 03:26:22;;;;;;;5.80;5.20;;;;;;;-0.84;100.00;99218.70;86621;271;764920;-69
2024/02/09 03:28:24;;;;;;;8.80;4.90;;;;;;;-0.85;100.00;99218.08;87110;279;137201;-68
2024/02/09 03:30:26;;;;;;;5.00;4.50;;;;;;;-0.89;100.00;99218.27;87360;274;25191;-70
2024/02/09 03:32:30;;;;;;;6.20;5.60;;;;;;;-0.93;100.00;99215.08;87304;278;136028;-70
2024/02/09 03:34:32;;;;;;;6.00;5.50;;;;;;;-0.96;100.00;99210.92;87435;269;22573;-68
2024/02/09 03:36:34;;;;;;;5.90;5.30;;;;;;;-0.94;100.00;99216.31;87164;266;136995;-68
2024/02/09 03:38:36;;;;;;;6.10;5.30;;;;;;;-0.91;100.00;99210.83;87300;277;23685;-69
2024/02/09 03:40:38;;;;;;;5.70;5.20;;;;;;;-0.89;100.00;99205.42;87038;288;136425;-68
2024/02/09 03:42:41;;;;;;;6.70;5.10;;;;;;;-0.89;100.00;99204.88;87378;269;22568;-69
2024/02/09 03:44:44;;;;;;;7.20;4.60;;;;;;;-0.88;100.00;99203.24;87365;273;136178;-68
2024/02/09 03:46:46;;;;;;;7.10;5.90;;;;;;;-0.94;100.00;99200.98;87350;273;22651;-68
2024/02/09 03:48:48;;;;;;;6.50;5.90;;;;;;;-1.01;100.00;99197.05;87160;274;136136;-69
2024/02/09 03:50:50;;;;;;;7.40;6.00;;;;;;;-1.06;100.00;99196.14;87305;269;26294;-70
2024/02/09 03:52:52;;;;;;;6.30;5.70;;;;;;;-1.05;100.00;99199.52;87006;268;138038;-69
2024/02/09 03:54:55;;;;;;;5.50;5.00;;;;;;;-1.01;100.00;99194.42;87220;270;23936;-70
2024/02/09 03:56:58;;;;;;;7.10;5.20;;;;;;;-0.98;100.00;99191.77;87140;269;137031;-68
2024/02/09 03:59:00;;;;;;;5.30;4.80;;;;;;;-0.97;100.00;99185.08;87326;277;22565;-68
2024/02/09 04:01:10;;;;;;;6.70;5.90;;;;;;;-0.99;100.00;99189.07;87212;269;135879;-68
2024/02/09 04:03:13;;;;;;;6.10;5.50;;;;;;;-1.04;100.00;99187.40;87338;266;22577;-69
2024/02/09 04:05:16;;;;;;;9.40;5.30;;;;;;;-1.08;100.00;99186.38;87288;269;136037;-69
2024/02/09 04:07:21;;;;;;;6.90;5.90;;;;;;;-1.08;100.00;99176.43;87338;270;22555;-66
2024/02/09 04:09:23;;;;;;;6.60;6.00;;;;;;;-1.04;100.00;99176.42;87367;270;136820;-65
2024/02/09 04:11:44;;;;;;;7.70;5.10;;;;;;;-1.01;100.00;99178.94;87301;269;23012;-68
2024/02/09 04:13:46;;;;;;;6.90;6.00;;;;;;;-1.00;100.00;99180.92;87251;270;136463;-66
2024/02/09 04:15:51;;;;;;;6.80;6.20;;;;;;;-1.03;100.00;99174.98;87360;278;22566;-69
2024/02/09 04:17:53;;;;;;;7.40;6.00;;;;;;;-1.08;100.00;99177.51;87276;269;136030;-66
2024/02/09 04:19:55;;;;;;;6.60;6.00;;;;;;;-1.13;100.00;99182.89;87356;266;22568;-67
2024/02/09 04:21:57;;;;;;;7.20;6.50;;;;;;;-1.14;100.00;99186.11;87205;266;136887;-68
2024/02/09 04:23:59;;;;;;;8.20;5.70;;;;;;;-1.10;100.00;99181.19;87247;269;25191;-67
2024/02/09 04:26:01;;;;;;;6.50;5.20;;;;;;;-1.07;100.00;99187.00;87232;269;136355;-67
2024/02/09 04:28:04;;;;;;;5.70;5.20;;;;;;;-1.08;100.00;99185.67;87167;270;138269;-66
2024/02/09 04:30:06;;;;;;;5.70;5.20;;;;;;;-1.14;100.00;99190.09;87366;269;22568;-69
2024/02/09 04:32:10;;;;;;;6.50;5.40;;;;;;;-1.19;100.00;99195.95;87271;269;136967;-69
2024/02/09 04:34:15;;;;;;;;;;;;;;;-1.19;100.00;99190.39;87309;270;23812;-68
2024/02/09 04:36:17;;;;;;;7.10;5.50;;;;;;;-1.13;100.00;99192.27;87281;274;123703;-67
2024/02/09 04:38:19;;;;;;;6.10;5.00;;;;;;;-1.09;100.00;99186.15;87522;269;22695;-68
2024/02/09 04:40:21;;;;;;;6.00;5.50;;;;;;;-1.08;100.00;99187.41;87376;270;137097;-67
2024/02/09 04:42:23;;;;;;;5.60;5.10;;;;;;;-1.07;100.00;99184.35;87327;269;22568;-68
2024/02/09 04:44:25;;;;;;;5.40;4.90;;;;;;;-1.10;100.00;99183.63;87205;269;136358;-66
2024/02/09 04:46:27;;;;;;;5.50;4.80;;;;;;;-1.13;100.00;99184.42;87332;271;24050;-67
2024/02/09 04:48:29;;;;;;;5.30;4.90;;;;;;;-1.14;100.00;99182.77;87338;278;136563;-68
2024/02/09 04:50:31;;;;;;;5.50;4.90;;;;;;;-1.11;100.00;99181.06;87470;270;25092;-66
2024/02/09 04:52:35;;;;;;;5.00;4.60;;;;;;;-1.06;100.00;99181.55;87243;269;138225;-70
2024/02/09 04:54:39;;;;;;;6.20;5.60;;;;;;;-1.04;100.00;99178.48;87304;273;25101;-68
2024/02/09 04:56:41;;;;;;;7.00;5.40;;;;;;;-1.04;100.00;99178.17;87266;265;137058;-70
2024/02/09 04:58:44;;;;;;;6.30;5.70;;;;;;;-1.08;100.00;99179.45;87461;273;23783;-69
2024/02/09 05:00:46;;;;;;;10.30;6.20;;;;;;;-1.14;100.00;99173.34;87326;274;136653;-71
2024/02/09 05:02:48;;;;;;;6.70;5.90;;;;;;;-1.19;100.00;99177.31;87375;269;24016;-69
2024/02/09 05:04:49;;;;;;;8.20;6.20;;;;;;;-1.17;100.00;99179.17;87241;266;138182;-70
2024/02/09 05:06:52;;;;;;;6.70;5.60;;;;;;;-1.11;100.00;99174.98;87301;269;26687;-69
2024/02/09 05:08:55;;;;;;;7.10;6.40;;;;;;;-1.07;100.00;99167.19;87121;274;137559;-67
2024/02/09 05:10:57;;;;;;;8.20;6.50;;;;;;;-1.10;100.00;99172.09;87390;271;25124;-68
2024/02/09 05:13:02;;;;;;;7.40;6.70;;;;;;;-1.16;100.00;99162.91;87273;270;137145;-70
2024/02/09 05:15:06;;;;;;;7.70;5.90;;;;;;;-1.22;100.00;99169.73;87340;278;24621;-71
2024/02/09 05:17:08;;;;;;;5.80;4.90;;;;;;;-1.20;100.00;99178.80;87334;270;136870;-68
2024/02/09 05:19:11;;;;;;;5.30;4.80;;;;;;;-1.17;100.00;99171.20;87356;261;23739;-67
2024/02/09 05:21:14;;;;;;;8.00;5.90;;;;;;;-1.15;100.00;99173.86;87198;273;136835;-67
2024/02/09 05:23:16;;;;;;;4.90;4.40;;;;;;;-1.17;100.00;99174.52;87393;269;25127;-68
2024/02/09 05:25:20;;;;;;;6.50;5.80;;;;;;;-1.20;100.00;99179.44;87164;274;136174;-69
2024/02/09 05:27:22;;;;;;;8.40;5.30;;;;;;;-1.22;100.00;99179.88;87320;277;24303;-68
2024/02/09 05:29:24;;;;;;;6.00;5.40;;;;;;;-1.24;100.00;99178.98;87089;273;138634;-67
2024/02/09 05:31:26;;;;;;;4.80;4.40;;;;;;;-1.20;100.00;99178.63;87183;275;24027;-70
2024/02/09 05:33:31;;;;;;;5.70;5.20;;;;;;;-1.17;100.00;99181.46;87170;273;136853;-67
2024/02/09 05:35:33;;;;;;;5.30;4.80;;;;;;;-1.11;100.00;99179.71;87115;271;23986;-67
2024/02/09 05:37:35;;;;;;;6.90;5.30;;;;;;;-1.12;100.00;99186.60;88187;266;135887;-68
2024/02/09 05:39:40;;;;;;;6.80;5.30;;;;;;;-1.18;100.00;99177.38;87317;265;24030;-69
2024/02/09 05:41:42;;;;;;;;;;;;;;;-1.21;100.00;99176.96;87242;273;137437;-68
2024/02/09 05:43:47;;;;;;;6.20;5.50;;;;;;;-1.19;100.00;99180.11;87265;270;24020;-70
2024/02/09 05:45:49;;;;;;;7.00;5.90;;;;;;;-1.16;100.00;99176.52;87312;269;138483;-66
2024/02/09 05:47:52;;;;;;;5.20;4.60;;;;;;;-1.16;100.00;99188.20;87282;273;25186;-70
2024/02/09 05:49:54;;;;;;;4.90;4.50;;;;;;;-1.15;100.00;99177.48;87220;278;136195;-68
2024/02/09 05:51:56;;;;;;;6.30;5.00;;;;;;;-1.20;100.00;99171.80;87223;278;25127;-72
2024/02/09 05:53:59;;;;;;;6.30;5.40;;;;;;;-1.26;100.00;99177.10;87289;266;135768;-73
2024/02/09 05:56:01;;;;;;;6.70;4.90;;;;;;;-1.32;100.00;99182.30;87190;271;22521;-70
2024/02/09 05:58:03;;;;;;;6.40;5.70;;;;;;;-1.31;100.00;99177.69;87264;273;23403;-68
2024/02/09 06:00:07;;;;;;;5.80;4.80;;;;;;;-1.30;100.00;99181.10;87076;268;137002;-68
2024/02/09 06:02:09;;;;;;;6.70;4.10;;;;;;;-1.29;100.00;99177.17;87079;271;25143;-66
2024/02/09 06:04:14;;;;;;;7.50;4.80;;;;;;;-1.26;100.00;99184.40;86906;271;136940;-67
2024/02/09 06:06:20;;;;;;;6.40;4.50;;;;;;;-1.25;100.00;99182.39;87665;269;26303;-66
2024/02/09 06:08:23;;;;;;;5.40;4.90;;;;;;;-1.28;100.00;99186.00;87278;274;135979;-68
2024/02/09 06:10:27;;;;;;;7.40;5.60;;;;;;;-1.32;100.00;99185.70;87170;270;24036;-71
2024/02/09 06:12:32;;;;;;;8.60;5.60;;;;;;;-1.37;100.00;99190.80;87433;269;136001;-66
2024/02/09 06:14:38;;;;;;;5.80;5.20;;;;;;;-1.37;100.00;99190.28;87447;271;25182;-72
2024/02/09 06:16:40;;;;;;;6.40;5.50;;;;;;;-1.34;100.00;99191.92;87201;266;136924;-65
2024/02/09 06:18:45;;;;;;;5.20;4.70;;;;;;;-1.31;100.00;99189.09;87315;269;22558;-66
2024/02/09 06:20:49;;;;;;;5.30;4.80;;;;;;;-1.30;100.00;99185.61;87173;273;136713;-68
2024/02/09 06:22:51;;;;;;;6.50;5.80;;;;;;;-1.29;100.00;99180.66;87303;270;25307;-68
2024/02/09 06:24:57;;;;;;;5.00;4.60;;;;;;;-1.31;100.00;99186.06;87233;269;136221;-77
2024/02/09 06:27:00;;;;;;;6.90;5.30;;;;;;;-1.36;100.00;99187.42;87315;269;25057;-73
2024/02/09 06:29:03;;;;;;;7.30;5.40;;;;;;;-1.42;100.00;99196.95;87179;266;136528;-65
2024/02/09 06:31:05;;;;;;;7.00;5.70;;;;;;;-1.42;100.00;99198.23;87357;278;22742;-68
2024/02/09 06:33:08;;;;;;;5.50;5.00;;;;;;;-1.37;100.00;99207.20;87136;271;137031;-64
2024/02/09 06:35:10;;;;;;;5.90;5.00;;;;;;;-1.33;100.00;99191.02;87254;271;25249;-71
2024/02/09 06:37:14;;;;;;;5.40;4.90;;;;;;;-1.30;100.00;99182.05;87232;267;136478;-67
2024/02/09 06:39:16;;;;;;;5.70;5.10;;;;;;;-1.31;100.00;99174.29;87218;267;22885;-67
2024/02/09 06:41:18;;;;;;;6.70;5.30;;;;;;;-1.38;100.00;99181.47;87151;279;137845;-64
2024/02/09 06:43:21;;;;;;;6.00;4.90;;;;;;;-1.42;100.00;99171.35;87179;274;23887;-64
2024/02/09 06:45:24;;;;;;;6.60;5.50;;;;;;;-1.36;100.00;99174.18;86984;276;137148;-76
2024/02/09 06:47:25;;;;;;;5.50;5.10;;;;;;;-1.33;100.00;99176.84;87227;270;23548;-70
2024/02/09 06:49:28;;;;;;;5.70;5.10;;;;;;;-1.32;100.00;99175.73;87104;274;138885;-69
2024/02/09 06:51:31;;;;;;;5.10;4.50;;;;;;;-1.34;100.00;99178.92;87353;274;22552;-69
2024/02/09 06:53:34;;;;;;;6.60;5.70;;;;;;;-1.40;100.00;99175.14;87264;270;136381;-71
2024/02/09 06:55:37;;;;;;;7.30;5.30;;;;;;;-1.42;100.00;99175.92;87181;270;24058;-68
2024/02/09 06:57:45;;;;;;;5.50;5.10;;;;;;;-1.43;100.00;99178.05;87140;266;136790;-69
2024/02/09 06:59:47;;;;;;;5.50;4.40;;;;;;;-1.41;100.00;99177.88;87280;270;22533;-69
2024/02/09 07:01:49;;;;;;;6.10;5.30;;;;;;;-1.42;100.00;99183.38;87112;269;136892;-68
2024/02/09 07:03:53;;;;;;;5.60;5.00;;;;;;;-1.41;100.00;99196.04;87229;269;22561;-69
2024/02/09 07:06:01;;;;;;;6.50;4.70;;;;;;;-1.40;100.00;99187.58;87208;279;136029;-67
2024/02/09 07:08:04;;;;;;;5.30;4.80;;;;;;;-1.43;100.00;99181.42;87080;273;136411;-67
2024/02/09 07:10:07;;;;;;;5.50;5.10;;;;;;;-1.47;100.00;99163.85;87147;278;22505;-69
2024/02/09 07:12:09;;;;;;;6.30;4.70;;;;;;;-1.50;100.00;99165.67;87163;269;136161;-69
2024/02/09 07:14:11;;;;;;;5.20;4.70;;;;;;;-1.47;100.00;99159.66;87100;271;22541;-66
2024/02/09 07:16:14;;;;;;;6.40;5.80;;;;;;;-1.42;100.00;99157.63;87163;269;137189;-69
2024/02/09 07:18:15;;;;;;;4.60;4.20;;;;;;;-1.37;100.00;99169.86;87426;269;22540;-69
2024/02/09 07:20:18;;;;;;;4.20;3.90;;;;;;;-1.32;100.00;99179.37;87192;270;136719;-70
2024/02/09 07:22:20;;;;;;;4.10;3.80;;;;;;;-1.34;100.00;99175.23;87402;266;22568;-70
2024/02/09 07:24:25;;;;;;;5.40;4.20;;;;;;;-1.39;100.00;99173.75;87108;277;136083;-71
2024/02/09 07:29:04;;;;;;;6.30;4.30;;;;;;;-1.58;100.00;99173.71;84882;301;605293;-69
2024/02/09 07:31:06;;;;;;;5.00;4.20;;;;;;;-1.50;100.00;99174.95;86245;288;22684;-69
2024/02/09 07:33:08;;;;;;;5.00;4.50;;;;;;;-1.42;100.00;99177.98;86047;290;136107;-69
2024/02/09 07:35:10;;;;;;;4.30;3.70;;;;;;;-1.38;100.00;99178.48;86212;290;22646;-68
2024/02/09 07:37:13;;;;;;;5.00;4.60;;;;;;;-1.35;100.00;99162.40;86068;287;136041;-70
2024/02/09 07:39:15;;;;;;;6.30;4.80;;;;;;;-1.35;100.00;99167.98;86788;276;24208;-71
2024/02/09 07:41:19;;;;;;;5.90;5.10;;;;;;;-1.37;100.00;99160.48;86805;280;136806;-71
2024/02/09 07:43:23;;;;;;;5.80;4.90;;;;;;;-1.41;100.00;99164.48;86409;277;739049;-69
2024/02/09 07:45:25;;;;;;;5.00;4.60;;;;;;;-1.43;100.00;99155.63;86893;278;137485;-69
2024/02/09 07:47:27;;;;;;;4.70;4.20;;;;;;;-1.41;100.00;99144.61;87274;270;25146;-68
2024/02/09 07:49:31;;;;;;;6.30;5.70;;;;;;;-1.38;100.00;99150.40;87378;267;136724;-70
2024/02/09 07:51:33;;;;;;;5.30;4.80;;;;;;;-1.31;100.00;99147.07;87285;271;22595;-71
2024/02/09 07:53:35;;;;;;;6.00;4.90;;;;;;;-1.29;100.00;99144.42;87219;275;136617;-72
2024/02/09 07:55:37;;;;;;;5.80;5.10;;;;;;;-1.27;100.00;99146.48;87396;267;22509;-69
2024/02/09 07:57:39;;;;;;;4.60;4.20;;;;;;;-1.30;100.00;99148.21;87210;271;135685;-68
2024/02/09 07:59:43;;;;;;;5.60;5.10;;;;;;;-1.34;100.00;99149.25;87083;277;24026;-68
2024/02/09 08:01:46;;;;;;;5.80;5.20;;;;;;;-1.38;100.00;99144.35;87081;268;135927;-71
2024/02/09 08:03:49;;;;;;;5.30;4.70;;;;;;;-1.36;100.00;99150.45;87215;271;22583;-70
2024/02/09 08:05:51;;;;;;;4.40;3.90;;;;;;;-1.30;100.00;99145.39;87312;275;136184;-70
2024/02/09 08:07:53;;;;;;;5.60;5.10;;;;;;;-1.24;100.00;99153.88;87282;278;22743;-70
2024/02/09 08:09:56;;;;;;;5.30;4.80;;;;;;;-1.20;100.00;99150.70;87147;271;135898;-69
2024/02/09 08:11:57;;;;;;;5.30;4.80;;;;;;;-1.20;100.00;99148.11;87218;278;24045;-70
2024/02/09 08:14:02;;;;;;;8.00;5.10;;;;;;;-1.24;100.00;99153.22;87279;274;136332;-70
2024/02/09 08:16:08;;;;;;;5.20;4.30;;;;;;;-1.28;100.00;99154.45;87132;274;136075;-68
2024/02/09 08:18:11;;;;;;;5.00;4.10;;;;;;;-1.27;100.00;99167.42;87188;280;23548;-71
2024/02/09 08:20:14;;;;;;;6.10;5.00;;;;;;;-1.21;100.00;99169.25;87206;271;136739;-73
2024/02/09 08:22:22;;;;;;;7.90;5.70;;;;;;;-1.16;100.00;99164.99;87172;279;23205;-71
2024/02/09 08:24:24;;;;;;;5.70;5.10;;;;;;;-1.13;100.00;99163.48;87119;271;136112;-68
2024/02/09 08:26:26;;;;;;;4.60;4.20;;;;;;;-1.13;100.00;99168.38;87238;279;25121;-72
2024/02/09 08:28:43;;;;;;;5.80;4.70;;;;;;;-1.16;100.00;99184.87;87004;272;136920;-69
2024/02/09 08:30:46;;;;;;;5.80;4.70;;;;;;;-1.19;100.00;99182.39;87286;267;25182;-69
2024/02/09 08:32:47;;;;;;;4.70;4.20;;;;;;;-1.22;100.00;99181.75;86976;270;135509;-70
2024/02/09 08:34:50;;;;;;;7.00;5.90;;;;;;;-1.18;100.00;99171.14;87158;278;24049;-70
2024/02/09 08:36:53;;;;;;;6.70;4.90;;;;;;;-1.12;100.00;99176.65;87177;267;138111;-69
2024/02/09 08:38:55;;;;;;;5.80;4.50;;;;;;;-1.08;100.00;99186.00;87120;274;22574;-70
2024/02/09 08:40:58;;;;;;;5.60;4.20;;;;;;;-1.05;100.00;99174.61;87074;272;137740;-70
2024/02/09 08:43:00;;;;;;;5.00;4.50;;;;;;;-1.05;100.00;99166.61;87180;280;25092;-69
2024/02/09 08:45:02;;;;;;;6.00;5.40;;;;;;;-1.08;100.00;99163.60;86919;273;135555;-69
2024/02/09 08:47:04;;;;;;;6.50;5.30;;;;;;;-1.11;100.00;99163.83;87115;276;25294;-70
2024/02/09 08:49:09;;;;;;;6.90;6.20;;;;;;;-1.12;100.00;99168.13;87105;272;135981;-70
2024/02/09 08:51:24;;;;;;;6.40;4.80;;;;;;;-1.08;100.00;99175.22;87162;276;25082;-69
2024/02/09 08:53:26;;;;;;;5.80;3.70;;;;;;;-1.03;100.00;99167.46;87169;278;138021;-70
2024/02/09 08:55:28;;;;;;;5.40;4.90;;;;;;;-1.00;100.00;99173.63;87322;269;22676;-69
2024/02/09 08:57:32;;;;;;;5.70;4.80;;;;;;;-0.98;100.00;99170.11;87020;280;136421;-68
2024/02/09 08:59:35;;;;;;;4.60;4.20;;;;;;;-1.00;100.00;99167.85;87232;271;26050;-69
2024/02/09 09:01:37;;;;;;;7.40;5.00;;;;;;;-1.05;100.00;99156.27;87430;267;136067;-70
2024/02/09 09:03:39;;;;;;;6.10;5.60;;;;;;;-1.09;100.00;99152.90;87316;271;22558;-69
2024/02/09 09:05:42;;;;;;;10.30;5.80;;;;;;;-1.11;100.00;99151.80;87101;268;135867;-69
2024/02/09 09:07:47;;;;;;;8.00;4.70;;;;;;;-1.04;100.00;99150.80;87257;271;25230;-69
2024/02/09 09:09:49;;;;;;;6.00;5.00;;;;;;;-0.93;100.00;99155.40;87229;274;140837;-71
2024/02/09 09:11:51;;;;;;;4.70;4.30;;;;;;;-0.86;100.00;99169.95;87288;267;22654;-72
2024/02/09 09:13:53;;;;;;;6.10;5.00;;;;;;;-0.82;100.00;99169.73;87130;267;137234;-70
2024/02/09 09:15:55;;;;;;;5.20;4.70;;;;;;;-0.83;100.00;99174.50;87113;276;25260;-68
2024/02/09 09:17:57;;;;;;;5.80;5.10;;;;;;;-0.86;100.00;99174.10;87419;272;136904;-70
2024/02/09 09:19:59;;;;;;;5.40;4.80;;;;;;;-0.89;100.00;99176.98;87190;272;22575;-68
2024/02/09 09:22:01;;;;;;;5.10;4.10;;;;;;;-0.91;100.00;99178.42;87153;271;135868;-70
2024/02/09 09:24:05;;;;;;;3.50;3.20;;;;;;;-0.87;100.00;99183.58;86957;276;136606;-72
2024/02/09 09:26:07;;;;;;;4.80;4.30;;;;;;;-0.82;100.00;99180.20;87494;271;25220;-70
2024/02/09 09:28:26;;;;;;;5.20;4.70;;;;;;;-0.80;100.00;99182.77;87588;266;136469;-69
2024/02/09 09:30:28;;;;;;;5.50;3.80;;;;;;;-0.82;100.00;99183.30;87136;276;23985;-69
2024/02/09 09:32:33;;;;;;;7.40;5.50;;;;;;;-0.88;100.00;99181.23;87095;268;135947;-70
2024/02/09 09:34:35;;;;;;;4.70;4.30;;;;;;;-0.92;100.00;99182.88;87174;268;24119;-70
2024/02/09 09:36:38;;;;;;;4.80;4.20;;;;;;;-0.87;100.00;99180.96;86960;279;136553;-72
2024/02/09 09:38:40;;;;;;;6.60;4.60;;;;;;;-0.77;100.00;99172.23;87102;272;23776;-69
2024/02/09 09:40:48;;;;;;;5.00;4.60;;;;;;;-0.70;100.00;99175.88;87028;272;136581;-71
2024/02/09 09:42:49;;;;;;;4.70;4.30;;;;;;;-0.67;100.00;99178.92;87252;279;22561;-69
2024/02/09 09:44:54;;;;;;;7.20;4.70;;;;;;;-0.67;100.00;99178.60;87052;267;138368;-71
2024/02/09 09:46:58;;;;;;;6.70;6.10;;;;;;;-0.69;100.00;99172.99;87451;267;23013;-70
2024/02/09 09:49:02;;;;;;;6.30;5.80;;;;;;;-0.68;100.00;99176.79;87284;267;135879;-67
2024/02/09 09:51:05;;;;;;;3.80;3.50;;;;;;;-0.69;100.00;99181.55;87188;271;25332;-70
2024/02/09 09:53:14;;;;;;;6.60;4.40;;;;;;;-0.67;100.00;99178.02;87380;267;136581;-70
2024/02/09 09:55:20;;;;;;;3.30;3.00;;;;;;;-0.61;100.00;99180.24;87124;273;22554;-68
2024/02/09 09:57:23;;;;;;;3.80;3.50;;;;;;;-0.56;100.00;99179.30;87181;271;136615;-71
2024/02/09 09:59:28;;;;;;;4.80;4.40;;;;;;;-0.52;100.00;99171.75;87188;275;25252;-70
2024/02/09 10:01:32;;;;;;;4.40;4.00;;;;;;;-0.49;100.00;99171.34;87138;271;136049;-70
2024/02/09 10:03:42;;;;;;;5.10;4.10;;;;;;;-0.51;100.00;99168.38;87428;271;22942;-68
2024/02/09 10:05:45;;;;;;;7.10;4.50;;;;;;;-0.57;100.00;99168.38;87157;271;135451;-69
2024/02/09 10:07:48;;;;;;;3.50;3.20;;;;;;;-0.62;100.00;99175.96;87239;279;25153;-69
2024/02/09 10:09:52;;;;;;;4.60;3.70;;;;;;;-0.59;100.00;99174.51;87433;267;137887;-69
2024/02/09 10:11:55;;;;;;;5.20;4.10;;;;;;;-0.55;100.00;99172.73;87217;280;22586;-69
2024/02/09 10:13:57;;;;;;;3.40;3.10;;;;;;;-0.48;100.00;99174.56;86987;280;136839;-70
2024/02/09 10:16:03;;;;;;;3.80;3.40;;;;;;;-0.49;100.00;99177.46;87100;272;22584;-70
2024/02/09 10:18:10;;;;;;;3.30;3.00;;;;;;;-0.57;100.00;99184.80;87338;271;22564;-71
2024/02/09 10:20:13;;;;;;;4.80;3.80;;;;;;;-0.65;100.00;99193.40;87276;271;136447;-76
2024/02/09 10:22:17;;;;;;;4.50;4.10;;;;;;;-0.71;100.00;99186.11;87291;271;24010;-71
2024/02/09 10:24:27;;;;;;;4.90;3.60;;;;;;;-0.69;100.00;99185.08;87070;267;137282;-70
2024/02/09 10:26:29;;;;;;;4.10;3.80;;;;;;;-0.64;100.00;99189.43;87088;277;22584;-68
2024/02/09 10:28:33;;;;;;;4.50;3.20;;;;;;;-0.58;100.00;99191.04;87046;275;136631;-71
2024/02/09 10:30:35;;;;;;;3.60;3.30;;;;;;;-0.55;100.00;99195.30;87296;266;22575;-68
2024/02/09 10:32:40;;;;;;;4.80;3.00;;;;;;;-0.57;100.00;99193.21;87149;271;136004;-68
2024/02/09 10:34:42;;;;;;;5.00;4.10;;;;;;;-0.58;100.00;99201.12;87355;272;22562;-68
2024/02/09 10:36:44;;;;;;;12.90;8.60;;;;;;;-0.59;100.00;99205.88;87180;272;136108;-72
2024/02/09 10:38:48;;;;;;;5.60;5.00;;;;;;;-0.60;100.00;99203.58;87169;275;22577;-70
2024/02/09 10:40:54;;;;;;;5.50;4.30;;;;;;;-0.56;100.00;99197.16;87120;279;138007;-69
2024/02/09 10:42:59;;;;;;;6.40;4.70;;;;;;;-0.50;100.00;99190.77;87197;276;24052;-69
2024/02/09 10:45:02;;;;;;;;;;;;;;;-0.45;100.00;99186.83;87049;273;136276;-70
2024/02/09 10:47:15;;;;;;;5.90;4.50;;;;;;;-0.40;100.00;99188.60;87114;272;24151;-69
2024/02/09 10:49:18;;;;;;;4.80;4.40;;;;;;;-0.38;100.00;99187.92;87192;272;136545;-69
2024/02/09 10:51:27;;;;;;;4.90;4.40;;;;;;;-0.40;100.00;99185.41;87328;274;22571;-71
2024/02/09 10:53:32;;;;;;;4.10;3.80;;;;;;;-0.40;100.00;99188.09;87032;268;135589;-70
2024/02/09 10:55:39;;;;;;;4.30;3.80;;;;;;;-0.40;100.00;99182.13;87407;267;24273;-70
2024/02/09 10:57:43;;;;;;;9.10;5.10;;;;;;;-0.41;100.00;99175.93;87102;272;136284;-73
2024/02/09 10:59:46;;;;;;;10.10;5.90;;;;;;;-0.41;100.00;99175.27;87267;272;24109;-69
2024/02/09 11:01:49;;;;;;;4.30;3.90;;;;;;;-0.40;100.00;99178.11;86981;268;137132;-69
2024/02/09 11:03:52;;;;;;;4.80;4.40;;;;;;;-0.36;100.00;99183.18;87241;277;24001;-71
2024/02/09 11:05:55;;;;;;;5.90;4.70;;;;;;;-0.33;100.00;99180.30;87140;272;136581;-70
2024/02/09 11:07:57;;;;;;;8.80;5.80;;;;;;;-0.30;100.00;99172.66;87110;272;24459;-71
2024/02/09 11:10:00;;;;;;;5.20;4.70;;;;;;;-0.28;100.00;99176.63;87128;268;136455;-68
2024/02/09 11:12:04;;;;;;;4.80;4.20;;;;;;;-0.27;100.00;99179.35;87243;276;25124;-69
2024/02/09 11:14:11;;;;;;;5.00;4.50;;;;;;;-0.26;100.00;99174.66;87535;272;22581;-70
2024/02/09 11:16:13;;;;;;;3.40;3.10;;;;;;;-0.26;100.00;99170.14;87263;271;136230;-69
2024/02/09 11:18:16;;;;;;;4.80;4.40;;;;;;;-0.30;100.00;99168.65;87228;279;22569;-71
2024/02/09 11:20:20;;;;;;;5.30;4.40;;;;;;;-0.36;100.00;99169.70;87201;268;136363;-70
2024/02/09 11:22:22;;;;;;;8.10;5.40;;;;;;;-0.37;100.00;99165.49;87162;272;22586;-68
2024/02/09 11:24:26;;;;;;;5.50;5.00;;;;;;;-0.33;100.00;99164.90;87286;281;137030;-69
2024/02/09 11:26:36;;;;;;;5.80;3.70;;;;;;;-0.26;100.00;99171.77;87044;280;22638;-69